sensor_id;sensor_type;location;lat;lon;timestamp;P1;durP1;ratioP1;P2;durP2;ratioP2
29814;SDS011;16708;50.426;7.664;2022-11-23T00:13:22;12.10;;;1.60;;
29814;SDS011;16708;50.426;7.664;2022-11-23T00:27:58;7.30;;;1.50;;
29814;SDS011;16708;50.426;7.664;2022-11-23T00:42:36;6.20;;;1.00;;
29814;SDS011;16708;50.426;7.664;2022-11-23T00:57:10;6.50;;;1.10;;
29814;SDS011;16708;50.426;7.664;2022-11-23T01:11:43;9.90;;;1.80;;
29814;SDS011;16708;50.426;7.664;2022-11-23T01:26:21;6.50;;;1.20;;
29814;SDS011;16708;50.426;7.664;2022-11-23T01:55:33;7.90;;;1.30;;
29814;SDS011;16708;50.426;7.664;2022-11-23T02:10:12;9.50;;;1.50;;
29814;SDS011;16708;50.426;7.664;2022-11-23T02:24:44;10.00;;;1.40;;
29814;SDS011;16708;50.426;7.664;2022-11-23T02:39:22;10.30;;;1.60;;
29814;SDS011;16708;50.426;7.664;2022-11-23T02:54:00;12.20;;;1.70;;
29814;SDS011;16708;50.426;7.664;2022-11-23T03:08:38;8.10;;;1.50;;
29814;SDS011;16708;50.426;7.664;2022-11-23T03:23:08;11.00;;;1.60;;
29814;SDS011;16708;50.426;7.664;2022-11-23T03:37:45;7.50;;;1.60;;
29814;SDS011;16708;50.426;7.664;2022-11-23T03:52:24;9.80;;;1.60;;
29814;SDS011;16708;50.426;7.664;2022-11-23T04:07:01;10.20;;;1.60;;
29814;SDS011;16708;50.426;7.664;2022-11-23T04:21:37;8.30;;;1.10;;
29814;SDS011;16708;50.426;7.664;2022-11-23T04:36:14;9.40;;;1.70;;
29814;SDS011;16708;50.426;7.664;2022-11-23T04:50:51;10.50;;;1.40;;
29814;SDS011;16708;50.426;7.664;2022-11-23T05:05:30;10.20;;;1.40;;
29814;SDS011;16708;50.426;7.664;2022-11-23T05:20:06;9.30;;;1.50;;
29814;SDS011;16708;50.426;7.664;2022-11-23T05:34:43;12.70;;;2.10;;
29814;SDS011;16708;50.426;7.664;2022-11-23T05:49:19;12.60;;;1.70;;
29814;SDS011;16708;50.426;7.664;2022-11-23T06:03:52;9.80;;;1.70;;
29814;SDS011;16708;50.426;7.664;2022-11-23T06:18:30;10.80;;;1.80;;
29814;SDS011;16708;50.426;7.664;2022-11-23T06:33:07;7.20;;;1.60;;
29814;SDS011;16708;50.426;7.664;2022-11-23T06:47:45;9.50;;;2.10;;
29814;SDS011;16708;50.426;7.664;2022-11-23T07:02:19;8.50;;;1.80;;
29814;SDS011;16708;50.426;7.664;2022-11-23T07:16:56;10.80;;;2.00;;
29814;SDS011;16708;50.426;7.664;2022-11-23T07:31:30;12.60;;;2.40;;
29814;SDS011;16708;50.426;7.664;2022-11-23T07:46:08;8.90;;;2.30;;
29814;SDS011;16708;50.426;7.664;2022-11-23T08:00:46;9.90;;;3.10;;
29814;SDS011;16708;50.426;7.664;2022-11-23T08:15:24;12.80;;;2.80;;
29814;SDS011;16708;50.426;7.664;2022-11-23T08:30:02;11.10;;;3.40;;
29814;SDS011;16708;50.426;7.664;2022-11-23T08:44:42;14.20;;;2.50;;
29814;SDS011;16708;50.426;7.664;2022-11-23T08:59:23;10.20;;;2.60;;
29814;SDS011;16708;50.426;7.664;2022-11-23T09:14:00;9.10;;;2.00;;
29814;SDS011;16708;50.426;7.664;2022-11-23T09:28:36;10.10;;;2.00;;
29814;SDS011;16708;50.426;7.664;2022-11-23T09:57:43;13.00;;;2.30;;
29814;SDS011;16708;50.426;7.664;2022-11-23T10:12:18;10.00;;;1.80;;
29814;SDS011;16708;50.426;7.664;2022-11-23T10:26:54;12.70;;;2.50;;
29814;SDS011;16708;50.426;7.664;2022-11-23T10:41:35;8.20;;;1.60;;
29814;SDS011;16708;50.426;7.664;2022-11-23T10:56:07;12.80;;;2.70;;
29814;SDS011;16708;50.426;7.664;2022-11-23T11:10:58;11.40;;;1.90;;
29814;SDS011;16708;50.426;7.664;2022-11-23T11:25:25;13.30;;;2.80;;
29814;SDS011;16708;50.426;7.664;2022-11-23T11:40:16;7.80;;;2.10;;
29814;SDS011;16708;50.426;7.664;2022-11-23T11:54:53;9.40;;;2.00;;
29814;SDS011;16708;50.426;7.664;2022-11-23T12:09:29;4.20;;;1.10;;
29814;SDS011;16708;50.426;7.664;2022-11-23T12:38:23;3.30;;;1.00;;
29814;SDS011;16708;50.426;7.664;2022-11-23T12:57:48;6.10;;;1.20;;
29814;SDS011;16708;50.426;7.664;2022-11-23T13:22:20;3.70;;;1.30;;
29814;SDS011;16708;50.426;7.664;2022-11-23T13:32:06;3.60;;;1.10;;
29814;SDS011;16708;50.426;7.664;2022-11-23T13:37:01;6.70;;;1.70;;
29814;SDS011;16708;50.426;7.664;2022-11-23T14:11:05;6.80;;;1.60;;
29814;SDS011;16708;50.426;7.664;2022-11-23T14:25:33;10.40;;;2.00;;
29814;SDS011;16708;50.426;7.664;2022-11-23T14:40:03;10.30;;;2.10;;
29814;SDS011;16708;50.426;7.664;2022-11-23T14:54:34;7.70;;;2.00;;
29814;SDS011;16708;50.426;7.664;2022-11-23T15:09:08;14.60;;;3.20;;
29814;SDS011;16708;50.426;7.664;2022-11-23T15:38:13;7.80;;;1.40;;
29814;SDS011;16708;50.426;7.664;2022-11-23T15:52:47;8.00;;;1.40;;
29814;SDS011;16708;50.426;7.664;2022-11-23T16:07:23;5.90;;;1.40;;
29814;SDS011;16708;50.426;7.664;2022-11-23T16:21:57;7.40;;;1.20;;
29814;SDS011;16708;50.426;7.664;2022-11-23T16:36:32;7.80;;;1.90;;
29814;SDS011;16708;50.426;7.664;2022-11-23T16:51:06;5.10;;;1.30;;
29814;SDS011;16708;50.426;7.664;2022-11-23T17:05:43;8.50;;;1.60;;
29814;SDS011;16708;50.426;7.664;2022-11-23T17:20:19;9.70;;;1.50;;
29814;SDS011;16708;50.426;7.664;2022-11-23T17:34:54;16.60;;;2.70;;
29814;SDS011;16708;50.426;7.664;2022-11-23T17:49:28;9.20;;;2.00;;
29814;SDS011;16708;50.426;7.664;2022-11-23T18:04:06;8.10;;;1.60;;
29814;SDS011;16708;50.426;7.664;2022-11-23T18:18:38;5.60;;;1.40;;
29814;SDS011;16708;50.426;7.664;2022-11-23T18:33:15;5.50;;;1.20;;
29814;SDS011;16708;50.426;7.664;2022-11-23T18:47:46;6.00;;;1.50;;
29814;SDS011;16708;50.426;7.664;2022-11-23T19:02:21;4.50;;;1.30;;
29814;SDS011;16708;50.426;7.664;2022-11-23T19:16:54;12.80;;;3.70;;
29814;SDS011;16708;50.426;7.664;2022-11-23T19:31:30;6.30;;;1.30;;
29814;SDS011;16708;50.426;7.664;2022-11-23T19:46:08;5.00;;;1.50;;
29814;SDS011;16708;50.426;7.664;2022-11-23T20:00:44;8.10;;;2.00;;
29814;SDS011;16708;50.426;7.664;2022-11-23T20:15:21;10.20;;;3.20;;
29814;SDS011;16708;50.426;7.664;2022-11-23T20:29:57;5.80;;;2.00;;
29814;SDS011;16708;50.426;7.664;2022-11-23T20:44:27;8.00;;;3.20;;
29814;SDS011;16708;50.426;7.664;2022-11-23T20:58:54;16.70;;;6.00;;
29814;SDS011;16708;50.426;7.664;2022-11-23T21:13:32;12.80;;;4.30;;
29814;SDS011;16708;50.426;7.664;2022-11-23T21:28:07;30.30;;;7.50;;
29814;SDS011;16708;50.426;7.664;2022-11-23T21:42:42;17.50;;;4.50;;
29814;SDS011;16708;50.426;7.664;2022-11-23T21:57:20;14.60;;;3.70;;
29814;SDS011;16708;50.426;7.664;2022-11-23T22:11:49;21.10;;;4.30;;
29814;SDS011;16708;50.426;7.664;2022-11-23T22:26:21;22.80;;;4.50;;
29814;SDS011;16708;50.426;7.664;2022-11-23T22:40:57;18.90;;;4.40;;
29814;SDS011;16708;50.426;7.664;2022-11-23T22:55:35;26.00;;;4.40;;
29814;SDS011;16708;50.426;7.664;2022-11-23T23:10:12;18.70;;;4.00;;
29814;SDS011;16708;50.426;7.664;2022-11-23T23:24:48;26.80;;;4.60;;
29814;SDS011;16708;50.426;7.664;2022-11-23T23:39:25;18.80;;;4.60;;
29814;SDS011;16708;50.426;7.664;2022-11-23T23:54:02;21.90;;;5.70;;
